sensor_id;sensor_type;location;lat;lon;timestamp;pressure;altitude;pressure_sealevel;temperature;humidity
72124;BME280;63818;37.134;-8.548;2023-04-15T00:03:22;101925.4;;;19.4;56.7
72124;BME280;63818;37.134;-8.548;2023-04-15T00:08:08;101928.4;;;19.3;56.9
72124;BME280;63818;37.134;-8.548;2023-04-15T00:13:10;101923.7;;;19.3;57.0
72124;BME280;63818;37.134;-8.548;2023-04-15T00:18:24;101920.7;;;19.3;56.9
72124;BME280;63818;37.134;-8.548;2023-04-15T00:23:10;101926.9;;;19.3;56.6
72124;BME280;63818;37.134;-8.548;2023-04-15T00:27:58;101935.1;;;19.3;56.9
72124;BME280;63818;37.134;-8.548;2023-04-15T00:32:44;101933.8;;;19.3;56.5
72124;BME280;63818;37.134;-8.548;2023-04-15T00:37:31;101936.1;;;19.3;56.4
72124;BME280;63818;37.134;-8.548;2023-04-15T00:42:17;101927.5;;;19.3;56.8
72124;BME280;63818;37.134;-8.548;2023-04-15T00:47:17;101922.3;;;19.3;56.7
72124;BME280;63818;37.134;-8.548;2023-04-15T00:52:04;101910.6;;;19.3;56.7
72124;BME280;63818;37.134;-8.548;2023-04-15T00:56:50;101915.0;;;19.3;56.8
72124;BME280;63818;37.134;-8.548;2023-04-15T01:01:39;101903.2;;;19.3;57.0
72124;BME280;63818;37.134;-8.548;2023-04-15T01:06:25;101908.6;;;19.2;57.0
72124;BME280;63818;37.134;-8.548;2023-04-15T01:11:14;101905.7;;;19.2;57.3
72124;BME280;63818;37.134;-8.548;2023-04-15T01:16:04;101896.3;;;19.2;57.3
72124;BME280;63818;37.134;-8.548;2023-04-15T01:20:50;101886.9;;;19.1;57.5
72124;BME280;63818;37.134;-8.548;2023-04-15T01:25:36;101890.3;;;19.1;57.8
72124;BME280;63818;37.134;-8.548;2023-04-15T01:30:25;101886.6;;;19.1;57.8
72124;BME280;63818;37.134;-8.548;2023-04-15T01:35:13;101885.2;;;19.1;58.2
72124;BME280;63818;37.134;-8.548;2023-04-15T01:39:58;101877.0;;;19.1;58.2
72124;BME280;63818;37.134;-8.548;2023-04-15T01:44:44;101873.9;;;19.1;58.3
72124;BME280;63818;37.134;-8.548;2023-04-15T01:49:31;101873.8;;;19.1;58.3
72124;BME280;63818;37.134;-8.548;2023-04-15T01:54:22;101866.8;;;19.1;58.4
72124;BME280;63818;37.134;-8.548;2023-04-15T01:59:08;101855.6;;;19.0;58.5
72124;BME280;63818;37.134;-8.548;2023-04-15T02:03:54;101861.1;;;19.0;58.6
72124;BME280;63818;37.134;-8.548;2023-04-15T02:08:53;101858.9;;;18.9;59.0
72124;BME280;63818;37.134;-8.548;2023-04-15T02:13:39;101865.9;;;18.9;59.3
72124;BME280;63818;37.134;-8.548;2023-04-15T02:18:27;101870.6;;;18.9;59.1
72124;BME280;63818;37.134;-8.548;2023-04-15T02:23:13;101857.2;;;18.9;59.7
72124;BME280;63818;37.134;-8.548;2023-04-15T02:28:02;101852.9;;;18.9;59.8
72124;BME280;63818;37.134;-8.548;2023-04-15T02:34:27;101845.6;;;18.9;59.6
72124;BME280;63818;37.134;-8.548;2023-04-15T02:39:14;101850.5;;;18.9;60.1
72124;BME280;63818;37.134;-8.548;2023-04-15T02:44:01;101855.9;;;18.9;60.1
72124;BME280;63818;37.134;-8.548;2023-04-15T02:48:47;101864.6;;;18.9;60.2
72124;BME280;63818;37.134;-8.548;2023-04-15T02:53:33;101855.5;;;18.8;60.3
72124;BME280;63818;37.134;-8.548;2023-04-15T02:58:19;101855.5;;;18.8;60.8
72124;BME280;63818;37.134;-8.548;2023-04-15T03:03:06;101852.3;;;18.8;60.9
72124;BME280;63818;37.134;-8.548;2023-04-15T03:07:52;101858.1;;;18.8;61.3
72124;BME280;63818;37.134;-8.548;2023-04-15T03:12:38;101845.9;;;18.8;61.5
72124;BME280;63818;37.134;-8.548;2023-04-15T03:17:24;101850.7;;;18.8;61.6
72124;BME280;63818;37.134;-8.548;2023-04-15T03:22:10;101847.0;;;18.8;61.7
72124;BME280;63818;37.134;-8.548;2023-04-15T03:26:56;101835.5;;;18.7;61.9
72124;BME280;63818;37.134;-8.548;2023-04-15T03:31:44;101829.5;;;18.6;61.8
72124;BME280;63818;37.134;-8.548;2023-04-15T03:36:33;101833.8;;;18.7;61.9
72124;BME280;63818;37.134;-8.548;2023-04-15T03:41:21;101830.1;;;18.7;62.3
72124;BME280;63818;37.134;-8.548;2023-04-15T03:46:17;101835.0;;;18.6;62.5
72124;BME280;63818;37.134;-8.548;2023-04-15T03:51:02;101831.6;;;18.6;62.4
72124;BME280;63818;37.134;-8.548;2023-04-15T03:55:48;101828.1;;;18.6;62.8
72124;BME280;63818;37.134;-8.548;2023-04-15T04:00:37;101837.4;;;18.6;62.7
72124;BME280;63818;37.134;-8.548;2023-04-15T04:05:23;101827.4;;;18.5;63.0
72124;BME280;63818;37.134;-8.548;2023-04-15T04:10:10;101825.7;;;18.5;63.2
72124;BME280;63818;37.134;-8.548;2023-04-15T04:14:55;101817.8;;;18.4;63.2
72124;BME280;63818;37.134;-8.548;2023-04-15T04:19:42;101825.7;;;18.4;63.2
72124;BME280;63818;37.134;-8.548;2023-04-15T04:24:28;101823.3;;;18.4;63.5
72124;BME280;63818;37.134;-8.548;2023-04-15T04:29:14;101818.7;;;18.4;63.6
72124;BME280;63818;37.134;-8.548;2023-04-15T04:34:00;101816.1;;;18.4;63.9
72124;BME280;63818;37.134;-8.548;2023-04-15T04:38:47;101827.9;;;18.4;63.9
72124;BME280;63818;37.134;-8.548;2023-04-15T04:43:33;101828.4;;;18.5;63.7
72124;BME280;63818;37.134;-8.548;2023-04-15T04:48:19;101831.8;;;18.4;64.2
72124;BME280;63818;37.134;-8.548;2023-04-15T04:53:07;101828.7;;;18.4;64.2
72124;BME280;63818;37.134;-8.548;2023-04-15T04:58:01;101828.4;;;18.5;64.0
72124;BME280;63818;37.134;-8.548;2023-04-15T05:02:46;101841.5;;;18.4;64.4
72124;BME280;63818;37.134;-8.548;2023-04-15T05:07:33;101843.5;;;18.4;64.4
72124;BME280;63818;37.134;-8.548;2023-04-15T05:12:19;101843.0;;;18.4;64.3
72124;BME280;63818;37.134;-8.548;2023-04-15T05:17:05;101841.1;;;18.4;64.3
72124;BME280;63818;37.134;-8.548;2023-04-15T05:21:51;101843.0;;;18.4;64.3
72124;BME280;63818;37.134;-8.548;2023-04-15T05:26:37;101837.1;;;18.4;64.4
72124;BME280;63818;37.134;-8.548;2023-04-15T05:31:23;101841.7;;;18.4;64.7
72124;BME280;63818;37.134;-8.548;2023-04-15T05:36:10;101852.3;;;18.4;64.6
72124;BME280;63818;37.134;-8.548;2023-04-15T05:40:56;101852.7;;;18.4;64.6
72124;BME280;63818;37.134;-8.548;2023-04-15T05:45:42;101848.2;;;18.3;64.5
72124;BME280;63818;37.134;-8.548;2023-04-15T05:50:30;101864.2;;;18.4;64.5
72124;BME280;63818;37.134;-8.548;2023-04-15T05:55:18;101869.6;;;18.4;64.8
72124;BME280;63818;37.134;-8.548;2023-04-15T06:00:05;101871.2;;;18.4;64.8
72124;BME280;63818;37.134;-8.548;2023-04-15T06:04:51;101877.6;;;18.3;64.9
72124;BME280;63818;37.134;-8.548;2023-04-15T06:09:37;101886.6;;;18.3;64.6
72124;BME280;63818;37.134;-8.548;2023-04-15T06:14:23;101881.2;;;18.3;64.6
72124;BME280;63818;37.134;-8.548;2023-04-15T06:19:12;101878.9;;;18.3;64.9
72124;BME280;63818;37.134;-8.548;2023-04-15T06:23:59;101883.5;;;18.3;64.8
72124;BME280;63818;37.134;-8.548;2023-04-15T06:28:45;101891.7;;;18.3;64.9
72124;BME280;63818;37.134;-8.548;2023-04-15T06:33:32;101899.9;;;18.3;64.8
72124;BME280;63818;37.134;-8.548;2023-04-15T06:38:18;101892.4;;;18.3;65.0
72124;BME280;63818;37.134;-8.548;2023-04-15T06:43:04;101908.8;;;18.3;64.9
72124;BME280;63818;37.134;-8.548;2023-04-15T06:47:49;101893.6;;;18.3;65.1
72124;BME280;63818;37.134;-8.548;2023-04-15T06:52:43;101900.3;;;18.4;65.4
72124;BME280;63818;37.134;-8.548;2023-04-15T06:57:30;101895.8;;;18.4;65.4
72124;BME280;63818;37.134;-8.548;2023-04-15T07:02:16;101914.5;;;18.4;65.3
72124;BME280;63818;37.134;-8.548;2023-04-15T07:07:02;101902.4;;;18.4;65.3
72124;BME280;63818;37.134;-8.548;2023-04-15T07:11:57;101917.1;;;18.4;65.6
72124;BME280;63818;37.134;-8.548;2023-04-15T07:16:43;101921.6;;;18.4;65.7
72124;BME280;63818;37.134;-8.548;2023-04-15T07:21:29;101924.6;;;18.4;65.4
72124;BME280;63818;37.134;-8.548;2023-04-15T07:26:16;101934.2;;;18.4;65.8
72124;BME280;63818;37.134;-8.548;2023-04-15T07:31:03;101939.4;;;18.4;65.8
72124;BME280;63818;37.134;-8.548;2023-04-15T07:35:49;101943.5;;;18.5;65.5
72124;BME280;63818;37.134;-8.548;2023-04-15T07:40:35;101938.4;;;18.5;65.4
72124;BME280;63818;37.134;-8.548;2023-04-15T07:45:21;101935.3;;;18.5;65.6
72124;BME280;63818;37.134;-8.548;2023-04-15T07:50:08;101937.4;;;18.5;65.4
72124;BME280;63818;37.134;-8.548;2023-04-15T07:54:56;101935.8;;;18.5;65.9
72124;BME280;63818;37.134;-8.548;2023-04-15T07:59:44;101942.2;;;18.5;65.6
72124;BME280;63818;37.134;-8.548;2023-04-15T08:04:30;101943.9;;;18.6;65.8
72124;BME280;63818;37.134;-8.548;2023-04-15T08:09:16;101940.2;;;18.6;65.9
72124;BME280;63818;37.134;-8.548;2023-04-15T08:14:02;101923.9;;;18.6;65.7
72124;BME280;63818;37.134;-8.548;2023-04-15T08:23:42;101933.9;;;18.7;65.7
72124;BME280;63818;37.134;-8.548;2023-04-15T08:28:28;101938.0;;;18.8;66.1
72124;BME280;63818;37.134;-8.548;2023-04-15T08:33:14;101927.3;;;18.8;66.3
72124;BME280;63818;37.134;-8.548;2023-04-15T08:38:15;101928.7;;;18.8;66.9
72124;BME280;63818;37.134;-8.548;2023-04-15T08:43:02;101926.9;;;18.8;67.0
72124;BME280;63818;37.134;-8.548;2023-04-15T08:47:53;101940.5;;;18.8;66.8
72124;BME280;63818;37.134;-8.548;2023-04-15T08:52:41;101942.1;;;18.8;66.7
72124;BME280;63818;37.134;-8.548;2023-04-15T08:57:30;101939.9;;;18.8;67.0
72124;BME280;63818;37.134;-8.548;2023-04-15T09:02:16;101951.6;;;18.8;67.2
72124;BME280;63818;37.134;-8.548;2023-04-15T09:07:02;101945.3;;;18.8;66.9
72124;BME280;63818;37.134;-8.548;2023-04-15T09:11:48;101940.7;;;18.8;66.9
72124;BME280;63818;37.134;-8.548;2023-04-15T09:16:59;101939.2;;;18.9;67.0
72124;BME280;63818;37.134;-8.548;2023-04-15T09:21:49;101940.9;;;18.9;66.9
72124;BME280;63818;37.134;-8.548;2023-04-15T09:26:36;101935.6;;;19.0;66.5
72124;BME280;63818;37.134;-8.548;2023-04-15T09:31:28;101932.2;;;19.0;66.0
72124;BME280;63818;37.134;-8.548;2023-04-15T09:36:54;101929.2;;;19.0;65.4
72124;BME280;63818;37.134;-8.548;2023-04-15T09:41:43;101933.1;;;19.0;65.6
72124;BME280;63818;37.134;-8.548;2023-04-15T09:46:44;101929.4;;;19.1;65.3
72124;BME280;63818;37.134;-8.548;2023-04-15T09:51:34;101920.9;;;19.1;65.1
72124;BME280;63818;37.134;-8.548;2023-04-15T09:56:21;101919.5;;;19.1;65.1
72124;BME280;63818;37.134;-8.548;2023-04-15T10:01:07;101916.4;;;19.1;64.9
72124;BME280;63818;37.134;-8.548;2023-04-15T10:05:58;101921.5;;;19.1;64.6
72124;BME280;63818;37.134;-8.548;2023-04-15T10:10:47;101912.2;;;19.1;64.4
72124;BME280;63818;37.134;-8.548;2023-04-15T10:15:49;101912.3;;;19.2;63.8
72124;BME280;63818;37.134;-8.548;2023-04-15T10:20:35;101906.2;;;19.2;62.9
72124;BME280;63818;37.134;-8.548;2023-04-15T10:25:23;101906.2;;;19.2;62.2
72124;BME280;63818;37.134;-8.548;2023-04-15T10:30:12;101894.2;;;19.2;61.2
72124;BME280;63818;37.134;-8.548;2023-04-15T10:34:58;101890.3;;;19.2;60.7
72124;BME280;63818;37.134;-8.548;2023-04-15T10:39:44;101872.5;;;19.3;59.2
72124;BME280;63818;37.134;-8.548;2023-04-15T10:44:30;101882.8;;;19.3;58.4
72124;BME280;63818;37.134;-8.548;2023-04-15T10:49:25;101863.8;;;19.3;57.5
72124;BME280;63818;37.134;-8.548;2023-04-15T10:54:14;101855.6;;;19.3;55.6
72124;BME280;63818;37.134;-8.548;2023-04-15T10:59:04;101848.3;;;19.4;54.9
72124;BME280;63818;37.134;-8.548;2023-04-15T11:03:50;101840.6;;;19.4;54.6
72124;BME280;63818;37.134;-8.548;2023-04-15T11:09:02;101847.3;;;19.4;53.9
72124;BME280;63818;37.134;-8.548;2023-04-15T11:13:50;101825.6;;;19.4;52.9
72124;BME280;63818;37.134;-8.548;2023-04-15T11:18:37;101814.9;;;19.5;52.1
72124;BME280;63818;37.134;-8.548;2023-04-15T11:23:30;101799.8;;;19.5;51.0
72124;BME280;63818;37.134;-8.548;2023-04-15T11:28:16;101802.9;;;19.5;50.6
72124;BME280;63818;37.134;-8.548;2023-04-15T11:33:08;101809.4;;;19.6;50.7
72124;BME280;63818;37.134;-8.548;2023-04-15T11:37:54;101801.3;;;19.6;49.9
72124;BME280;63818;37.134;-8.548;2023-04-15T11:42:40;101792.8;;;19.6;49.4
72124;BME280;63818;37.134;-8.548;2023-04-15T11:47:47;101768.1;;;19.7;48.9
72124;BME280;63818;37.134;-8.548;2023-04-15T11:52:33;101753.4;;;19.8;48.2
72124;BME280;63818;37.134;-8.548;2023-04-15T11:57:23;101744.5;;;19.8;48.4
72124;BME280;63818;37.134;-8.548;2023-04-15T12:02:12;101734.3;;;19.9;48.5
72124;BME280;63818;37.134;-8.548;2023-04-15T12:07:10;101731.2;;;19.9;48.9
72124;BME280;63818;37.134;-8.548;2023-04-15T12:11:58;101710.2;;;19.9;48.5
72124;BME280;63818;37.134;-8.548;2023-04-15T12:16:45;101714.6;;;19.9;48.0
72124;BME280;63818;37.134;-8.548;2023-04-15T12:21:38;101708.4;;;20.0;48.0
72124;BME280;63818;37.134;-8.548;2023-04-15T12:26:29;101690.2;;;20.0;47.7
72124;BME280;63818;37.134;-8.548;2023-04-15T12:31:20;101684.9;;;20.0;47.5
72124;BME280;63818;37.134;-8.548;2023-04-15T12:36:06;101680.0;;;20.1;47.2
72124;BME280;63818;37.134;-8.548;2023-04-15T12:40:53;101659.0;;;20.1;47.5
72124;BME280;63818;37.134;-8.548;2023-04-15T12:45:41;101654.1;;;20.2;47.9
72124;BME280;63818;37.134;-8.548;2023-04-15T12:50:27;101642.5;;;20.2;47.6
72124;BME280;63818;37.134;-8.548;2023-04-15T12:55:16;101628.9;;;20.3;47.5
72124;BME280;63818;37.134;-8.548;2023-04-15T13:00:02;101632.7;;;20.3;46.9
72124;BME280;63818;37.134;-8.548;2023-04-15T13:04:51;101626.5;;;20.4;46.8
72124;BME280;63818;37.134;-8.548;2023-04-15T13:09:43;101613.0;;;20.4;46.8
72124;BME280;63818;37.134;-8.548;2023-04-15T13:14:29;101612.3;;;20.5;46.7
72124;BME280;63818;37.134;-8.548;2023-04-15T13:19:14;101607.0;;;20.5;46.4
72124;BME280;63818;37.134;-8.548;2023-04-15T13:24:13;101614.9;;;20.5;46.5
72124;BME280;63818;37.134;-8.548;2023-04-15T13:29:00;101605.5;;;20.6;46.2
72124;BME280;63818;37.134;-8.548;2023-04-15T13:33:45;101620.3;;;20.7;46.6
72124;BME280;63818;37.134;-8.548;2023-04-15T13:38:36;101605.1;;;20.7;45.8
72124;BME280;63818;37.134;-8.548;2023-04-15T13:43:22;101604.1;;;20.8;45.8
72124;BME280;63818;37.134;-8.548;2023-04-15T13:48:08;101589.1;;;20.8;45.4
72124;BME280;63818;37.134;-8.548;2023-04-15T13:52:56;101590.7;;;20.9;45.3
72124;BME280;63818;37.134;-8.548;2023-04-15T13:57:44;101580.0;;;21.0;45.3
72124;BME280;63818;37.134;-8.548;2023-04-15T14:02:31;101573.5;;;21.0;45.3
72124;BME280;63818;37.134;-8.548;2023-04-15T14:07:17;101561.1;;;21.1;44.5
72124;BME280;63818;37.134;-8.548;2023-04-15T14:12:03;101551.3;;;21.2;43.9
72124;BME280;63818;37.134;-8.548;2023-04-15T14:16:53;101547.8;;;21.2;43.9
72124;BME280;63818;37.134;-8.548;2023-04-15T14:21:51;101544.0;;;21.3;43.8
72124;BME280;63818;37.134;-8.548;2023-04-15T14:26:37;101561.4;;;21.4;49.9
72124;BME280;63818;37.134;-8.548;2023-04-15T14:31:23;101566.4;;;21.6;54.5
72124;BME280;63818;37.134;-8.548;2023-04-15T14:36:09;101590.7;;;21.8;56.9
72124;BME280;63818;37.134;-8.548;2023-04-15T14:40:55;101557.9;;;21.8;57.1
72124;BME280;63818;37.134;-8.548;2023-04-15T14:45:42;101566.3;;;21.7;57.7
72124;BME280;63818;37.134;-8.548;2023-04-15T14:50:29;101569.3;;;21.9;57.6
72124;BME280;63818;37.134;-8.548;2023-04-15T14:55:15;101571.6;;;22.0;56.9
72124;BME280;63818;37.134;-8.548;2023-04-15T15:00:04;101564.7;;;21.9;57.3
72124;BME280;63818;37.134;-8.548;2023-04-15T15:04:50;101555.4;;;22.1;56.9
72124;BME280;63818;37.134;-8.548;2023-04-15T15:09:39;101538.4;;;22.2;56.3
72124;BME280;63818;37.134;-8.548;2023-04-15T15:14:25;101527.2;;;22.4;56.0
72124;BME280;63818;37.134;-8.548;2023-04-15T15:19:11;101523.0;;;22.5;55.7
72124;BME280;63818;37.134;-8.548;2023-04-15T15:23:59;101495.6;;;22.7;54.6
72124;BME280;63818;37.134;-8.548;2023-04-15T15:28:46;101532.7;;;22.9;53.8
72124;BME280;63818;37.134;-8.548;2023-04-15T15:33:32;101480.2;;;23.2;52.8
72124;BME280;63818;37.134;-8.548;2023-04-15T15:43:09;101494.5;;;23.3;52.0
72124;BME280;63818;37.134;-8.548;2023-04-15T15:48:04;101476.0;;;23.6;51.1
72124;BME280;63818;37.134;-8.548;2023-04-15T15:52:50;101484.9;;;23.9;50.6
72124;BME280;63818;37.134;-8.548;2023-04-15T15:57:36;101469.1;;;24.3;49.5
72124;BME280;63818;37.134;-8.548;2023-04-15T16:02:24;101454.0;;;24.5;48.0
72124;BME280;63818;37.134;-8.548;2023-04-15T16:07:10;101461.4;;;24.5;48.1
72124;BME280;63818;37.134;-8.548;2023-04-15T16:11:59;101461.9;;;24.8;47.5
72124;BME280;63818;37.134;-8.548;2023-04-15T16:16:47;101451.4;;;24.8;46.8
72124;BME280;63818;37.134;-8.548;2023-04-15T16:21:35;101466.8;;;25.0;46.1
72124;BME280;63818;37.134;-8.548;2023-04-15T16:26:21;101465.6;;;25.0;46.4
72124;BME280;63818;37.134;-8.548;2023-04-15T16:31:10;101455.8;;;25.1;45.6
72124;BME280;63818;37.134;-8.548;2023-04-15T16:35:56;101453.1;;;25.1;45.9
72124;BME280;63818;37.134;-8.548;2023-04-15T16:40:42;101451.9;;;25.1;45.4
72124;BME280;63818;37.134;-8.548;2023-04-15T16:45:28;101448.8;;;25.2;45.5
72124;BME280;63818;37.134;-8.548;2023-04-15T16:50:15;101446.1;;;25.4;44.8
72124;BME280;63818;37.134;-8.548;2023-04-15T16:55:01;101458.7;;;25.6;44.5
72124;BME280;63818;37.134;-8.548;2023-04-15T16:59:47;101438.6;;;25.4;44.5
72124;BME280;63818;37.134;-8.548;2023-04-15T17:04:35;101442.6;;;25.4;44.3
72124;BME280;63818;37.134;-8.548;2023-04-15T17:09:21;101468.9;;;25.3;44.1
72124;BME280;63818;37.134;-8.548;2023-04-15T17:14:07;101433.8;;;25.2;44.4
72124;BME280;63818;37.134;-8.548;2023-04-15T17:18:56;101464.0;;;25.0;44.8
72124;BME280;63818;37.134;-8.548;2023-04-15T17:23:42;101459.2;;;24.8;45.4
72124;BME280;63818;37.134;-8.548;2023-04-15T17:28:30;101440.7;;;24.8;45.6
72124;BME280;63818;37.134;-8.548;2023-04-15T17:33:19;101459.9;;;24.6;45.4
72124;BME280;63818;37.134;-8.548;2023-04-15T17:38:04;101451.6;;;24.5;45.6
72124;BME280;63818;37.134;-8.548;2023-04-15T17:42:50;101445.6;;;24.3;45.9
72124;BME280;63818;37.134;-8.548;2023-04-15T17:47:36;101443.2;;;24.2;46.1
72124;BME280;63818;37.134;-8.548;2023-04-15T17:52:22;101469.3;;;24.1;46.0
72124;BME280;63818;37.134;-8.548;2023-04-15T17:57:14;101455.5;;;24.0;46.9
72124;BME280;63818;37.134;-8.548;2023-04-15T18:02:00;101448.8;;;23.9;46.3
72124;BME280;63818;37.134;-8.548;2023-04-15T18:06:48;101448.0;;;23.8;46.7
72124;BME280;63818;37.134;-8.548;2023-04-15T18:11:39;101438.0;;;23.7;47.0
72124;BME280;63818;37.134;-8.548;2023-04-15T18:16:26;101439.5;;;23.6;47.4
72124;BME280;63818;37.134;-8.548;2023-04-15T18:21:16;101430.8;;;23.5;48.2
72124;BME280;63818;37.134;-8.548;2023-04-15T18:26:02;101437.4;;;23.4;48.1
72124;BME280;63818;37.134;-8.548;2023-04-15T18:30:48;101441.6;;;23.3;48.8
72124;BME280;63818;37.134;-8.548;2023-04-15T18:35:39;101456.0;;;23.3;48.7
72124;BME280;63818;37.134;-8.548;2023-04-15T18:40:25;101438.8;;;23.3;49.2
72124;BME280;63818;37.134;-8.548;2023-04-15T18:45:11;101433.6;;;23.2;49.1
72124;BME280;63818;37.134;-8.548;2023-04-15T18:50:25;101441.0;;;23.1;49.4
72124;BME280;63818;37.134;-8.548;2023-04-15T18:55:10;101432.3;;;23.0;50.2
72124;BME280;63818;37.134;-8.548;2023-04-15T18:59:56;101432.2;;;23.0;50.2
72124;BME280;63818;37.134;-8.548;2023-04-15T19:04:48;101423.5;;;22.9;50.5
72124;BME280;63818;37.134;-8.548;2023-04-15T19:09:34;101423.3;;;22.8;50.7
72124;BME280;63818;37.134;-8.548;2023-04-15T19:14:32;101424.0;;;22.7;50.5
72124;BME280;63818;37.134;-8.548;2023-04-15T19:19:18;101427.4;;;22.6;50.5
72124;BME280;63818;37.134;-8.548;2023-04-15T19:24:05;101428.5;;;22.6;50.3
72124;BME280;63818;37.134;-8.548;2023-04-15T19:28:56;101431.2;;;22.6;50.1
72124;BME280;63818;37.134;-8.548;2023-04-15T19:33:42;101423.4;;;22.5;50.4
72124;BME280;63818;37.134;-8.548;2023-04-15T19:38:33;101432.0;;;22.5;50.1
72124;BME280;63818;37.134;-8.548;2023-04-15T19:43:19;101441.4;;;22.5;50.2
72124;BME280;63818;37.134;-8.548;2023-04-15T19:48:06;101445.6;;;22.5;50.1
72124;BME280;63818;37.134;-8.548;2023-04-15T19:52:52;101446.4;;;22.5;50.1
72124;BME280;63818;37.134;-8.548;2023-04-15T19:57:38;101447.5;;;22.5;50.5
72124;BME280;63818;37.134;-8.548;2023-04-15T20:02:24;101457.3;;;22.4;50.4
72124;BME280;63818;37.134;-8.548;2023-04-15T20:07:10;101468.6;;;22.4;50.7
72124;BME280;63818;37.134;-8.548;2023-04-15T20:11:55;101469.7;;;22.4;51.2
72124;BME280;63818;37.134;-8.548;2023-04-15T20:16:43;101482.9;;;22.3;51.4
72124;BME280;63818;37.134;-8.548;2023-04-15T20:21:31;101497.8;;;22.3;51.6
72124;BME280;63818;37.134;-8.548;2023-04-15T20:26:18;101493.0;;;22.3;51.9
72124;BME280;63818;37.134;-8.548;2023-04-15T20:31:06;101502.0;;;22.2;52.2
72124;BME280;63818;37.134;-8.548;2023-04-15T20:35:52;101496.5;;;22.2;52.3
72124;BME280;63818;37.134;-8.548;2023-04-15T20:40:38;101508.1;;;22.2;52.5
72124;BME280;63818;37.134;-8.548;2023-04-15T20:45:24;101503.0;;;22.2;52.5
72124;BME280;63818;37.134;-8.548;2023-04-15T20:50:11;101502.6;;;22.1;53.0
72124;BME280;63818;37.134;-8.548;2023-04-15T20:54:56;101511.1;;;22.1;52.7
72124;BME280;63818;37.134;-8.548;2023-04-15T20:59:42;101515.4;;;22.1;52.9
72124;BME280;63818;37.134;-8.548;2023-04-15T21:04:28;101517.0;;;22.1;53.0
72124;BME280;63818;37.134;-8.548;2023-04-15T21:09:14;101520.8;;;22.0;53.2
72124;BME280;63818;37.134;-8.548;2023-04-15T21:14:04;101514.9;;;22.0;53.0
72124;BME280;63818;37.134;-8.548;2023-04-15T21:18:50;101522.8;;;22.1;53.0
72124;BME280;63818;37.134;-8.548;2023-04-15T21:23:38;101515.0;;;22.1;53.0
72124;BME280;63818;37.134;-8.548;2023-04-15T21:28:24;101517.4;;;22.1;53.2
72124;BME280;63818;37.134;-8.548;2023-04-15T21:33:10;101517.0;;;22.1;52.7
72124;BME280;63818;37.134;-8.548;2023-04-15T21:37:56;101517.0;;;22.1;52.7
72124;BME280;63818;37.134;-8.548;2023-04-15T21:42:44;101516.6;;;22.1;52.7
72124;BME280;63818;37.134;-8.548;2023-04-15T21:47:32;101507.2;;;22.1;52.5
72124;BME280;63818;37.134;-8.548;2023-04-15T21:52:25;101519.8;;;22.1;52.9
72124;BME280;63818;37.134;-8.548;2023-04-15T21:57:11;101519.0;;;22.1;52.8
72124;BME280;63818;37.134;-8.548;2023-04-15T22:02:13;101519.0;;;22.1;52.8
72124;BME280;63818;37.134;-8.548;2023-04-15T22:06:59;101517.9;;;22.1;52.6
72124;BME280;63818;37.134;-8.548;2023-04-15T22:11:48;101518.7;;;22.2;52.5
72124;BME280;63818;37.134;-8.548;2023-04-15T22:16:36;101514.4;;;22.1;52.8
72124;BME280;63818;37.134;-8.548;2023-04-15T22:21:22;101508.9;;;22.1;52.8
72124;BME280;63818;37.134;-8.548;2023-04-15T22:26:08;101510.0;;;22.1;52.2
72124;BME280;63818;37.134;-8.548;2023-04-15T22:30:57;101501.8;;;22.1;52.2
72124;BME280;63818;37.134;-8.548;2023-04-15T22:35:45;101501.5;;;22.1;51.3
72124;BME280;63818;37.134;-8.548;2023-04-15T22:40:35;101494.4;;;22.2;51.4
72124;BME280;63818;37.134;-8.548;2023-04-15T22:45:20;101485.8;;;22.2;51.2
72124;BME280;63818;37.134;-8.548;2023-04-15T22:50:07;101490.5;;;22.1;51.1
72124;BME280;63818;37.134;-8.548;2023-04-15T22:54:59;101487.0;;;22.1;50.5
72124;BME280;63818;37.134;-8.548;2023-04-15T22:59:47;101490.5;;;22.1;50.3
72124;BME280;63818;37.134;-8.548;2023-04-15T23:04:43;101485.4;;;22.1;50.5
72124;BME280;63818;37.134;-8.548;2023-04-15T23:09:29;101485.4;;;22.1;50.4
72124;BME280;63818;37.134;-8.548;2023-04-15T23:14:15;101477.5;;;22.1;50.2
72124;BME280;63818;37.134;-8.548;2023-04-15T23:19:01;101479.5;;;22.1;50.5
72124;BME280;63818;37.134;-8.548;2023-04-15T23:23:47;101477.5;;;22.1;50.2
72124;BME280;63818;37.134;-8.548;2023-04-15T23:28:34;101465.0;;;22.1;50.0
72124;BME280;63818;37.134;-8.548;2023-04-15T23:33:22;101472.4;;;22.1;50.1
72124;BME280;63818;37.134;-8.548;2023-04-15T23:38:07;101474.3;;;22.1;49.9
72124;BME280;63818;37.134;-8.548;2023-04-15T23:42:56;101473.1;;;22.0;49.8
72124;BME280;63818;37.134;-8.548;2023-04-15T23:47:43;101461.7;;;22.0;49.8
72124;BME280;63818;37.134;-8.548;2023-04-15T23:52:28;101457.0;;;22.0;49.8
72124;BME280;63818;37.134;-8.548;2023-04-15T23:57:14;101464.4;;;22.0;50.0
